Time;durP1;ratioP1;P1;durP2;ratioP2;P2;SDS_P1;SDS_P2;PMS_P1;PMS_P2;Temp;Humidity;BMP_temperature;BMP_pressure;BME280_temperature;BME280_humidity;BME280_pressure;Samples;Min_cycle;Max_cycle;Signal;HPM_P1;HPM_P2
2022/04/28 00:00:38;;;;;;;22.73;12.45;;;;;;;6.60;54.79;101752.88;1614986;88;20265;-78
2022/04/28 00:03:04;;;;;;;;;;;;;;;6.54;54.03;101751.06;1617399;88;20901;-78
2022/04/28 00:05:30;;;;;;;23.73;13.40;;;;;;;6.50;54.68;101745.83;1615187;88;20132;-77
2022/04/28 00:07:57;;;;;;;24.37;12.47;;;;;;;6.49;54.15;101742.39;1615196;88;20973;-78
2022/04/28 00:10:23;;;;;;;18.20;12.00;;;;;;;6.44;54.09;101744.02;1615237;88;20932;-78
2022/04/28 00:12:50;;;;;;;;;;;;;;;6.37;54.02;101740.02;1617187;88;21284;-77
2022/04/28 00:15:16;;;;;;;20.45;10.60;;;;;;;6.28;54.58;101736.84;1611059;88;20132;-78
2022/04/28 00:17:46;;;;;;;19.05;12.05;;;;;;;6.21;54.23;101738.87;1611340;88;21405;-79
2022/04/28 00:20:12;;;;;;;16.65;9.78;;;;;;;6.16;54.33;101741.77;1613839;88;21095;-79
2022/04/28 00:22:39;;;;;;;14.68;9.28;;;;;;;6.13;54.35;101742.99;1612517;87;21072;-79
2022/04/28 00:25:08;;;;;;;12.37;9.70;;;;;;;6.02;54.26;101747.04;1613480;88;21499;-78
2022/04/28 00:27:34;;;;;;;14.38;10.58;;;;;;;5.90;54.26;101749.80;1613844;88;21503;-78
2022/04/28 00:30:01;;;;;;;20.50;11.28;;;;;;;5.88;54.46;101753.13;1594419;88;21496;-78
2022/04/28 00:32:28;;;;;;;;;;;;;;;5.85;54.53;101750.50;1616323;88;21537;-77
2022/04/28 00:34:54;;;;;;;14.68;9.50;;;;;;;5.81;55.17;101752.13;1613559;88;20167;-77
2022/04/28 00:37:21;;;;;;;18.27;10.03;;;;;;;5.77;54.55;101747.77;1613443;88;21480;-77
2022/04/28 00:39:49;;;;;;;19.02;10.18;;;;;;;5.69;54.56;101751.89;1614389;88;21023;-77
2022/04/28 00:42:16;;;;;;;;;;;;;;;5.62;54.63;101760.29;1616100;88;21059;-78
2022/04/28 00:44:43;;;;;;;16.20;11.05;;;;;;;5.57;55.26;101757.61;1613416;88;20208;-78
2022/04/28 00:47:11;;;;;;;17.27;11.80;;;;;;;5.50;54.86;101760.00;1605615;88;21565;-78
2022/04/28 00:52:23;;;;;;;15.50;11.00;;;;;;;5.46;55.06;101753.07;1612820;88;21484;-78
2022/04/28 00:54:52;;;;;;;15.43;10.82;;;;;;;5.44;55.08;101755.59;1613848;88;21410;-78
2022/04/28 00:57:20;;;;;;;16.97;11.50;;;;;;;5.40;55.06;101758.05;1613334;88;21112;-78
2022/04/28 00:59:48;;;;;;;17.60;10.90;;;;;;;5.33;55.11;101756.63;1614041;88;21519;-78
2022/04/28 01:02:17;;;;;;;15.53;10.85;;;;;;;5.24;55.18;101755.13;1614883;88;21404;-78
2022/04/28 01:04:45;;;;;;;18.27;11.45;;;;;;;5.23;55.29;101753.80;1613682;87;21628;-78
2022/04/28 01:07:13;;;;;;;15.10;9.78;;;;;;;5.21;55.30;101756.33;1576350;88;21051;-78
2022/04/28 01:09:41;;;;;;;21.50;11.33;;;;;;;5.18;55.29;101752.45;1613079;88;21635;-77
2022/04/28 01:12:14;;;;;;;18.12;11.35;;;;;;;5.14;55.40;101751.05;1614090;88;21464;-77
2022/04/28 01:14:42;;;;;;;19.75;10.95;;;;;;;5.09;55.45;101747.51;1615012;88;21397;-77
2022/04/28 01:17:09;;;;;;;18.00;11.22;;;;;;;5.07;55.55;101752.59;1613878;88;21417;-77
2022/04/28 01:19:35;;;;;;;15.50;11.28;;;;;;;5.04;55.62;101748.67;1615700;88;20931;-78
2022/04/28 01:22:04;;;;;;;14.18;11.43;;;;;;;5.02;55.58;101752.03;1618410;87;21468;-78
2022/04/28 01:24:31;;;;;;;16.10;11.53;;;;;;;4.93;55.58;101753.53;1618523;87;21106;-78
2022/04/28 01:26:59;;;;;;;16.12;11.22;;;;;;;4.89;55.72;101753.41;1618129;87;21439;-77
2022/04/28 01:29:26;;;;;;;16.35;11.45;;;;;;;4.86;55.91;101753.34;1618604;87;21557;-76
2022/04/28 01:31:53;;;;;;;16.48;10.28;;;;;;;4.84;55.97;101758.42;1617007;87;21513;-77
2022/04/28 01:34:19;;;;;;;14.68;11.28;;;;;;;4.84;55.97;101756.27;1616791;88;21624;-76
2022/04/28 01:36:45;;;;;;;18.70;10.88;;;;;;;4.85;56.00;101759.29;1616833;87;21161;-77
2022/04/28 01:39:12;;;;;;;16.07;10.78;;;;;;;4.84;56.03;101761.41;1616738;87;21101;-76
2022/04/28 01:41:38;;;;;;;16.73;11.53;;;;;;;4.82;56.16;101766.90;1616833;88;21089;-77
2022/04/28 01:44:04;;;;;;;19.90;11.80;;;;;;;4.79;56.17;101762.97;1616906;88;21587;-78
2022/04/28 01:46:33;;;;;;;13.28;10.63;;;;;;;4.80;56.22;101758.30;1612763;87;21589;-78
2022/04/28 01:48:59;;;;;;;18.20;10.40;;;;;;;4.78;56.18;101763.39;1617004;87;21101;-77
2022/04/28 01:56:55;;;;;;;12.07;9.28;;;;;;;4.58;56.29;101766.73;1566670;90;21628;-77
2022/04/28 01:59:21;;;;;;;13.65;8.80;;;;;;;4.49;56.32;101768.17;1576034;89;21624;-77
2022/04/28 02:01:47;;;;;;;10.75;8.78;;;;;;;4.43;56.37;101768.87;1576139;89;21624;-77
2022/04/28 02:04:14;;;;;;;13.93;8.60;;;;;;;4.37;56.44;101769.13;1572991;89;21613;-77
2022/04/28 02:06:42;;;;;;;11.10;9.05;;;;;;;4.33;56.45;101773.28;1574548;89;21361;-77
2022/04/28 02:09:09;;;;;;;15.55;9.10;;;;;;;4.31;56.59;101778.36;1574986;89;21157;-77
2022/04/28 02:11:42;;;;;;;13.22;9.33;;;;;;;4.29;56.69;101771.47;1574753;90;21141;-77
2022/04/28 02:14:08;;;;;;;11.50;8.78;;;;;;;4.29;56.70;101779.15;1574560;89;21122;-77
2022/04/28 02:16:35;;;;;;;11.40;8.75;;;;;;;4.29;56.82;101772.33;1572123;89;21120;-77
2022/04/28 02:19:01;;;;;;;10.03;8.18;;;;;;;4.29;56.88;101776.59;1573223;90;21571;-77
2022/04/28 02:21:28;;;;;;;11.43;8.23;;;;;;;4.31;57.05;101769.81;1584058;90;21595;-78
2022/04/28 02:23:54;;;;;;;10.20;7.55;;;;;;;4.35;57.29;101761.40;1617048;88;21135;-77
2022/04/28 02:26:20;;;;;;;10.80;7.65;;;;;;;4.40;57.21;101769.20;1617280;88;21102;-77
2022/04/28 02:28:47;;;;;;;12.58;8.53;;;;;;;4.45;57.35;101772.77;1616661;88;21059;-77
2022/04/28 02:31:13;;;;;;;12.40;8.38;;;;;;;4.49;57.40;101772.02;1616892;88;21076;-78
2022/04/28 02:33:44;;;;;;;11.43;7.67;;;;;;;4.52;57.36;101769.13;1616883;88;21127;-78
2022/04/28 02:36:10;;;;;;;;;;;;;;;4.52;57.43;101769.13;1619430;88;22236;-78
2022/04/28 02:38:36;;;;;;;11.75;6.65;;;;;;;4.53;58.39;101772.56;1617174;88;20249;-76
2022/04/28 02:41:03;;;;;;;12.65;6.90;;;;;;;4.53;57.61;101772.56;1617135;88;21127;-77
2022/04/28 02:43:30;;;;;;;10.58;6.55;;;;;;;4.54;57.57;101773.88;1616884;88;21040;-77
2022/04/28 02:45:58;;;;;;;9.70;6.90;;;;;;;4.55;57.69;101783.30;1616441;88;21670;-78
2022/04/28 02:48:25;;;;;;;13.25;6.37;;;;;;;4.55;57.73;101781.16;1614852;87;21139;-78
2022/04/28 02:50:52;;;;;;;10.30;6.10;;;;;;;4.57;57.85;101782.06;1596497;88;21079;-77
2022/04/28 02:53:19;;;;;;;8.63;6.78;;;;;;;4.60;57.87;101774.05;1618121;88;20928;-78
2022/04/28 02:55:46;;;;;;;9.18;6.03;;;;;;;4.63;57.85;101775.41;1618055;88;21063;-77
2022/04/28 02:58:12;;;;;;;11.75;6.83;;;;;;;4.64;57.80;101776.28;1616891;88;21496;-77
2022/04/28 03:00:39;;;;;;;9.85;6.97;;;;;;;4.60;57.74;101780.86;1616259;87;21695;-77
2022/04/28 03:03:06;;;;;;;10.72;5.70;;;;;;;4.56;57.77;101785.04;1617958;88;21460;-78
2022/04/28 03:10:46;;;;;;;8.18;5.67;;;;;;;4.52;57.95;101788.34;1618089;88;20905;-77
2022/04/28 03:10:53;;;;;;;10.50;5.50;;;;;;;4.54;58.08;101793.50;1593015;90;20893;-78
2022/04/28 03:13:22;;;;;;;8.00;5.70;;;;;;;4.53;58.16;101793.92;1613623;88;20889;-77
2022/04/28 03:15:51;;;;;;;6.92;5.50;;;;;;;4.52;58.20;101785.78;1617657;88;20950;-78
2022/04/28 03:18:18;;;;;;;11.48;6.55;;;;;;;4.53;58.12;101791.77;1617795;88;20900;-77
2022/04/28 03:20:44;;;;;;;12.80;6.50;;;;;;;4.49;58.24;101790.81;1618456;88;26869;-77
2022/04/28 03:23:11;;;;;;;11.35;7.70;;;;;;;4.48;58.17;101793.34;1618369;88;20978;-77
2022/04/28 03:25:38;;;;;;;8.30;5.80;;;;;;;4.42;58.13;101802.99;1618623;88;23272;-78
2022/04/28 03:28:07;;;;;;;8.23;5.33;;;;;;;4.36;58.20;101796.83;1618311;87;21007;-78
2022/04/28 03:30:33;;;;;;;8.90;5.42;;;;;;;4.30;58.23;101801.36;1618413;87;20934;-78
2022/04/28 03:33:02;;;;;;;6.60;4.92;;;;;;;4.27;58.26;101799.58;1618445;87;20895;-78
2022/04/28 03:35:29;;;;;;;9.13;5.17;;;;;;;4.23;58.30;101802.02;1618471;88;21010;-78
2022/04/28 03:37:58;;;;;;;6.50;4.70;;;;;;;4.19;58.34;101800.19;1617448;87;21074;-77
2022/04/28 03:40:24;;;;;;;9.98;5.10;;;;;;;4.16;58.37;101803.53;1596137;88;21093;-77
2022/04/28 03:42:51;;;;;;;8.48;5.47;;;;;;;4.12;58.44;101810.69;1616966;88;21074;-77
2022/04/28 03:45:20;;;;;;;9.68;5.08;;;;;;;4.12;58.59;101819.65;1605399;87;21156;-78
2022/04/28 03:47:46;;;;;;;8.55;5.37;;;;;;;4.14;58.64;101823.13;1600901;88;21376;-77
2022/04/28 03:50:12;;;;;;;6.97;4.58;;;;;;;4.17;58.69;101833.42;1615019;88;21148;-77
2022/04/28 03:52:42;;;;;;;10.48;5.33;;;;;;;4.17;58.80;101830.86;1615561;88;21085;-77
2022/04/28 03:55:10;;;;;;;9.38;5.05;;;;;;;4.21;58.80;101833.09;1619290;87;21061;-77
2022/04/28 03:57:37;;;;;;;5.70;5.05;;;;;;;4.23;58.86;101835.29;1617836;86;21093;-77
2022/04/28 04:00:07;;;;;;;7.60;4.42;;;;;;;4.26;58.92;101832.83;1616701;87;21089;-77
2022/04/28 04:02:33;;;;;;;6.97;4.22;;;;;;;4.28;58.94;101842.28;1620911;87;21093;-78
2022/04/28 04:04:59;;;;;;;7.62;4.67;;;;;;;4.33;58.86;101844.98;1610561;87;21061;-78
2022/04/28 04:07:35;;;;;;;8.43;4.58;;;;;;;4.36;58.99;101848.91;1617812;87;21117;-78
2022/04/28 04:10:02;;;;;;;8.20;4.43;;;;;;;4.39;59.06;101849.00;1611367;87;21074;-79
2022/04/28 04:12:29;;;;;;;7.97;4.17;;;;;;;4.47;59.22;101850.09;1614907;87;21073;-78
2022/04/28 04:14:55;;;;;;;7.45;4.33;;;;;;;4.58;59.30;101858.08;1608909;86;21149;-78
2022/04/28 04:17:21;;;;;;;7.37;4.10;;;;;;;4.71;59.40;101857.98;1617174;87;21085;-78
2022/04/28 04:19:49;;;;;;;7.25;3.83;;;;;;;4.83;59.33;101863.03;1628484;87;21370;-80
2022/04/28 04:22:15;;;;;;;6.70;3.47;;;;;;;4.90;59.41;101870.06;1609402;88;21431;-78
2022/04/28 04:24:41;;;;;;;5.72;3.83;;;;;;;4.98;59.42;101864.73;1612168;88;21069;-78
2022/04/28 04:27:09;;;;;;;8.33;4.30;;;;;;;5.05;59.42;101874.73;1619878;87;21079;-77
2022/04/28 04:29:37;;;;;;;10.00;3.37;;;;;;;5.09;59.44;101874.41;1625928;87;22089;-77
2022/04/28 04:32:20;;;;;;;5.05;4.00;;;;;;;5.15;59.54;101874.57;1621684;87;20950;-78
2022/04/28 04:34:50;;;;;;;4.37;3.50;;;;;;;5.21;59.58;101875.98;1623622;87;20926;-78
2022/04/28 04:37:21;;;;;;;4.15;3.05;;;;;;;5.27;59.64;101882.14;1616716;87;21132;-78
2022/04/28 04:39:48;;;;;;;8.58;3.40;;;;;;;5.31;59.64;101881.80;1617039;87;21022;-78
2022/04/28 04:42:15;;;;;;;5.75;3.60;;;;;;;5.39;59.70;101883.28;1610445;87;20942;-78
2022/04/28 04:44:41;;;;;;;;;;;;;;;5.44;59.71;101889.40;1619914;87;20983;-78
2022/04/28 04:47:07;;;;;;;7.35;3.52;;;;;;;5.49;60.13;101892.53;1615033;86;20196;-78
2022/04/28 04:49:34;;;;;;;5.40;3.70;;;;;;;5.54;59.82;101897.78;1620129;87;20982;-77
2022/04/28 04:52:02;;;;;;;7.45;4.05;;;;;;;5.60;59.90;101896.23;1622401;87;21013;-78
2022/04/28 04:54:28;;;;;;;5.87;3.70;;;;;;;5.69;59.80;101905.86;1615583;87;20958;-78
2022/04/28 04:56:54;;;;;;;6.37;4.03;;;;;;;5.70;59.81;101906.31;1615858;88;20979;-79
2022/04/28 04:59:21;;;;;;;6.53;4.17;;;;;;;5.75;59.86;101902.55;1613709;87;21039;-79
2022/04/28 05:01:47;;;;;;;5.90;3.92;;;;;;;5.80;59.91;101897.98;1617660;87;20986;-78
2022/04/28 05:04:13;;;;;;;8.33;4.53;;;;;;;5.90;59.97;101903.81;1616730;88;20971;-78
2022/04/28 05:06:40;;;;;;;6.22;4.40;;;;;;;6.11;60.13;101906.02;1618121;87;20946;-78
2022/04/28 05:09:12;;;;;;;6.45;4.05;;;;;;;6.48;60.34;101905.52;1618323;87;20930;-79
2022/04/28 05:11:39;;;;;;;9.00;4.62;;;;;;;6.87;60.32;101906.73;1618507;87;20950;-79
2022/04/28 05:14:05;;;;;;;9.78;3.95;;;;;;;7.40;60.52;101909.42;1617160;87;20974;-79
2022/04/28 05:16:31;;;;;;;5.85;4.28;;;;;;;7.91;60.70;101911.56;1616475;87;21157;-79
2022/04/28 05:18:58;;;;;;;6.22;4.42;;;;;;;8.46;60.63;101911.08;1616913;87;21089;-78
2022/04/28 05:21:24;;;;;;;6.37;4.00;;;;;;;9.00;60.64;101907.85;1616150;87;21096;-78
2022/04/28 05:23:50;;;;;;;4.22;3.42;;;;;;;9.51;60.64;101913.52;1616644;87;21079;-78
2022/04/28 05:26:17;;;;;;;5.87;3.80;;;;;;;9.98;60.65;101910.86;1616639;87;21089;-79
2022/04/28 05:28:44;;;;;;;4.42;3.45;;;;;;;10.43;60.58;101915.47;1616366;88;21578;-79
2022/04/28 05:31:10;;;;;;;4.60;4.03;;;;;;;10.85;60.50;101917.40;1616467;87;20974;-78
2022/04/28 05:33:42;;;;;;;7.35;3.37;;;;;;;11.25;60.40;101919.65;1616123;87;21149;-78
2022/04/28 05:36:09;;;;;;;5.17;3.70;;;;;;;11.59;60.57;101920.11;1616383;88;21145;-78
2022/04/28 05:38:39;;;;;;;26.42;4.95;;;;;;;12.02;60.54;101925.30;1574404;89;21096;-78
2022/04/28 05:41:07;;;;;;;5.15;3.55;;;;;;;12.43;60.43;101926.95;1572929;89;21081;-78
2022/04/28 05:46:21;;;;;;;3.60;2.90;;;;;;;13.18;59.67;101924.89;1576126;88;20188;-78
2022/04/28 05:48:48;;;;;;;6.03;3.47;;;;;;;13.38;60.23;101930.83;1573639;89;21116;-78
2022/04/28 05:51:14;;;;;;;9.53;3.60;;;;;;;13.39;59.95;101920.00;1550666;89;572897;-78
2022/04/28 05:53:43;;;;;;;4.70;3.80;;;;;;;13.55;60.04;101923.75;1547906;90;20951;-78
2022/04/28 05:56:10;;;;;;;6.95;3.37;;;;;;;13.78;59.96;101929.22;1537777;90;21148;-77
2022/04/28 05:58:36;;;;;;;3.37;2.98;;;;;;;13.96;59.71;101932.10;1542928;90;21171;-76
2022/04/28 06:01:02;;;;;;;6.17;4.10;;;;;;;14.15;59.67;101930.59;1544740;90;21467;-75
2022/04/28 06:03:28;;;;;;;7.08;3.72;;;;;;;14.33;59.44;101929.55;1552134;90;21106;-75
2022/04/28 06:05:55;;;;;;;6.05;3.67;;;;;;;14.39;59.25;101942.93;1542379;91;21214;-75
2022/04/28 06:08:21;;;;;;;5.58;3.65;;;;;;;14.52;59.25;101928.50;1535255;90;21101;-76
2022/04/28 06:10:48;;;;;;;5.67;3.42;;;;;;;14.69;59.10;101932.63;1548162;91;21599;-77
2022/04/28 06:13:14;;;;;;;8.90;3.65;;;;;;;14.74;58.83;101919.11;1550166;90;21164;-77
2022/04/28 06:15:41;;;;;;;8.65;3.37;;;;;;;14.85;58.65;101933.72;1546984;90;21163;-77
2022/04/28 06:18:07;;;;;;;5.42;3.00;;;;;;;14.92;58.39;101941.02;1531252;90;21566;-77
2022/04/28 06:20:37;;;;;;;4.53;3.52;;;;;;;14.94;58.35;101942.30;1544236;90;21275;-77
2022/04/28 06:23:03;;;;;;;;;;;;;;;15.03;58.23;101944.35;1557686;90;21153;-77
2022/04/28 06:25:30;;;;;;;5.28;3.02;;;;;;;15.12;57.74;101944.20;1587526;88;20863;-76
2022/04/28 06:27:57;;;;;;;;;;;;;;;15.14;57.93;101941.13;1582740;88;22075;-77
2022/04/28 06:30:23;;;;;;;;;;;;;;;15.14;57.12;101942.88;1556437;90;20186;-76
2022/04/28 06:32:49;;;;;;;5.83;3.12;;;;;;;15.11;57.33;101938.56;1578560;88;20194;-76
2022/04/28 06:35:16;;;;;;;4.97;3.47;;;;;;;15.07;57.57;101936.91;1573538;88;21088;-76
2022/04/28 06:37:42;;;;;;;4.50;3.45;;;;;;;15.18;57.56;101938.04;1581803;88;21478;-76
2022/04/28 06:40:12;;;;;;;6.53;3.45;;;;;;;15.32;57.42;101937.84;1569426;88;21155;-76
2022/04/28 06:42:43;;;;;;;10.28;4.25;;;;;;;15.39;57.18;101948.16;1580144;88;21004;-77
2022/04/28 06:45:12;;;;;;;5.40;3.70;;;;;;;15.40;57.14;101948.58;1582041;88;21031;-77
2022/04/28 06:47:39;;;;;;;5.10;3.95;;;;;;;15.56;57.09;101945.31;1573454;88;20933;-76
2022/04/28 06:50:06;;;;;;;7.30;3.83;;;;;;;15.48;56.55;101946.73;1586831;88;20980;-76
2022/04/28 06:52:40;;;;;;;6.65;3.70;;;;;;;15.60;56.95;101946.98;1583918;89;20973;-76
2022/04/28 06:55:10;;;;;;;5.90;4.45;;;;;;;15.82;56.72;101944.45;1579871;88;21433;-76
2022/04/28 06:57:38;;;;;;;6.05;4.12;;;;;;;16.00;56.56;101951.56;1581292;88;20914;-76
2022/04/28 07:00:07;;;;;;;6.80;4.58;;;;;;;16.08;56.10;101950.55;1569005;89;21123;-77
2022/04/28 07:02:34;;;;;;;6.03;4.40;;;;;;;16.07;56.21;101955.34;1586684;89;21066;-77
2022/04/28 07:05:03;;;;;;;5.85;4.15;;;;;;;16.19;56.03;101952.49;1569670;88;20986;-77
2022/04/28 07:07:29;;;;;;;;;;;;;;;16.32;56.05;101956.19;1573544;88;21062;-77
2022/04/28 07:09:55;;;;;;;6.65;5.10;;;;;;;16.44;55.35;101965.96;1582620;88;20196;-77
2022/04/28 07:12:25;;;;;;;9.03;5.62;;;;;;;16.55;55.82;101964.02;1585041;88;21583;-77
2022/04/28 07:14:51;;;;;;;8.08;5.65;;;;;;;16.78;55.67;101964.88;1583085;88;21403;-77
2022/04/28 07:17:17;;;;;;;9.80;7.37;;;;;;;16.96;55.53;101963.64;1573055;88;20951;-77
2022/04/28 07:19:43;;;;;;;10.53;6.00;;;;;;;17.01;55.33;101963.09;1585397;88;20975;-77
2022/04/28 07:22:08;;;;;;;8.57;6.20;;;;;;;17.03;54.80;101969.15;1593007;88;20923;-77
2022/04/28 07:24:39;;;;;;;8.00;6.50;;;;;;;16.96;55.24;101971.47;1582424;88;21733;-77
2022/04/28 07:27:03;;;;;;;10.13;7.00;;;;;;;17.22;55.26;101974.81;1600409;88;21093;-77
2022/04/28 07:29:29;;;;;;;10.40;7.60;;;;;;;17.54;55.27;101979.33;1583254;88;21120;-77
2022/04/28 07:31:55;;;;;;;;;;;;;;;17.78;55.22;101979.20;1587155;88;22128;-77
2022/04/28 07:34:21;;;;;;;9.53;6.23;;;;;;;17.72;53.91;101978.91;1572356;88;394059;-77
2022/04/28 07:36:47;;;;;;;7.78;6.03;;;;;;;17.52;54.11;101974.13;1575022;89;21134;-77
2022/04/28 07:39:13;;;;;;;7.50;5.83;;;;;;;17.35;53.77;101976.27;1572644;89;20971;-77
2022/04/28 07:41:40;;;;;;;7.40;5.53;;;;;;;17.24;53.53;101980.01;1592205;88;20981;-77
2022/04/28 07:44:06;;;;;;;7.70;6.05;;;;;;;17.22;53.56;101980.05;1582791;89;21170;-77
2022/04/28 07:46:32;;;;;;;13.70;12.60;;;;;;;17.25;53.40;101986.52;1579277;89;21106;-77
2022/04/28 07:48:59;;;;;;;8.05;6.10;;;;;;;17.26;52.83;101983.45;1536154;92;21131;-77
2022/04/28 07:51:25;;;;;;;;;;;;;;;17.10;52.78;101979.89;1569535;91;21065;-77
2022/04/28 07:53:51;;;;;;;5.07;4.57;;;;;;;16.95;52.32;101981.52;1533327;91;20181;-77
2022/04/28 07:56:18;;;;;;;6.17;4.12;;;;;;;17.09;52.74;101980.78;1549848;91;21730;-77
2022/04/28 07:58:45;;;;;;;;;;;;;;;17.21;52.57;101985.72;1558050;90;21103;-78
2022/04/28 08:01:12;;;;;;;5.97;4.03;;;;;;;17.02;51.78;101988.34;1560632;90;20149;-77
2022/04/28 08:03:39;;;;;;;4.28;3.85;;;;;;;16.97;52.30;101995.41;1555696;90;21667;-77
2022/04/28 08:06:05;;;;;;;6.62;4.83;;;;;;;16.97;52.29;101999.77;1547403;91;21112;-77
2022/04/28 08:08:33;;;;;;;7.22;4.25;;;;;;;16.87;52.06;101999.09;1550841;90;21456;-77
2022/04/28 08:11:00;;;;;;;5.62;3.92;;;;;;;16.62;51.70;102000.45;1539406;91;21472;-77
2022/04/28 08:13:29;;;;;;;5.08;3.70;;;;;;;16.48;51.71;102000.71;1540932;90;21646;-77
2022/04/28 08:15:57;;;;;;;6.92;3.87;;;;;;;16.47;51.75;102001.16;1550317;90;21097;-77
2022/04/28 08:18:25;;;;;;;7.08;3.85;;;;;;;16.56;51.63;102001.43;1549416;90;21076;-77
2022/04/28 08:20:51;;;;;;;5.30;3.75;;;;;;;16.69;51.47;102002.92;1551397;90;21006;-77
2022/04/28 08:23:17;;;;;;;6.70;4.23;;;;;;;16.92;51.36;102001.62;1549603;90;20990;-77
2022/04/28 08:25:44;;;;;;;6.22;3.80;;;;;;;17.15;51.08;102001.56;1589148;88;20922;-77
2022/04/28 08:28:10;;;;;;;4.33;3.30;;;;;;;17.17;51.20;101999.75;1585336;88;20956;-77
2022/04/28 08:30:36;;;;;;;5.75;3.87;;;;;;;17.36;51.07;102001.52;1571056;88;21015;-77
2022/04/28 08:33:04;;;;;;;4.05;3.55;;;;;;;17.47;50.90;101995.61;1579988;89;21102;-77
2022/04/28 08:35:32;;;;;;;4.03;3.40;;;;;;;17.57;50.84;102001.94;1579826;89;21076;-77
2022/04/28 08:37:59;;;;;;;5.28;3.80;;;;;;;17.64;50.65;102001.77;1580159;88;21060;-77
2022/04/28 08:40:25;;;;;;;3.60;3.20;;;;;;;17.66;50.38;102005.69;1586116;89;21140;-77
2022/04/28 08:42:54;;;;;;;4.90;4.10;;;;;;;17.66;50.27;102011.78;1580097;88;21100;-77
2022/04/28 08:45:28;;;;;;;5.12;3.52;;;;;;;17.57;50.13;102001.49;1574604;89;21572;-77
2022/04/28 08:47:58;;;;;;;6.37;3.90;;;;;;;17.54;49.96;102001.11;1578461;88;21082;-77
2022/04/28 08:50:25;;;;;;;4.65;3.25;;;;;;;17.48;50.02;102003.00;1589835;89;21022;-77
2022/04/28 08:52:54;;;;;;;3.95;3.40;;;;;;;17.56;50.04;102001.08;1588157;88;21050;-77
2022/04/28 08:55:21;;;;;;;4.85;3.65;;;;;;;17.54;49.68;101999.81;1576460;88;21042;-77
2022/04/28 08:57:49;;;;;;;5.03;3.72;;;;;;;17.38;49.42;102005.41;1581134;89;21068;-77
2022/04/28 09:00:16;;;;;;;6.43;3.90;;;;;;;17.21;49.38;102000.09;1599113;88;21796;-76
2022/04/28 09:02:42;;;;;;;5.60;3.50;;;;;;;17.07;49.20;102007.84;1599843;88;20978;-76
2022/04/28 09:05:10;;;;;;;7.57;3.90;;;;;;;16.79;49.16;102011.45;1585001;88;21312;-76
2022/04/28 09:07:40;;;;;;;4.12;3.27;;;;;;;16.72;49.23;102007.23;1597393;88;21021;-77
2022/04/28 09:10:29;;;;;;;6.05;3.95;;;;;;;16.65;48.91;102009.09;1593548;88;21022;-77
2022/04/28 09:15:56;;;;;;;7.80;3.50;;;;;;;16.16;48.64;102016.93;1595102;87;21503;-77
2022/04/28 09:18:23;;;;;;;13.00;4.05;;;;;;;15.94;48.52;102014.28;1601510;88;21126;-77
2022/04/28 09:20:50;;;;;;;5.58;3.75;;;;;;;15.90;48.58;102010.85;1598298;87;21006;-77
2022/04/28 09:23:18;;;;;;;4.72;3.83;;;;;;;15.82;48.31;102001.84;1586212;87;21589;-77
2022/04/28 09:25:46;;;;;;;5.95;3.77;;;;;;;15.72;48.36;102005.47;1580128;89;21148;-77
2022/04/28 09:28:13;;;;;;;10.82;3.75;;;;;;;15.66;48.32;102001.66;1582323;89;20938;-77
2022/04/28 09:30:49;;;;;;;5.78;4.28;;;;;;;15.64;48.15;102005.16;1581328;89;21027;-77
2022/04/28 09:33:18;;;;;;;6.17;4.20;;;;;;;15.56;47.97;102009.19;1586477;89;21390;-77
2022/04/28 09:35:50;;;;;;;7.25;3.42;;;;;;;15.50;47.99;102005.36;1583410;89;21010;-77
2022/04/28 09:38:18;;;;;;;3.47;3.17;;;;;;;15.45;47.93;102015.85;1581204;89;21403;-77
2022/04/28 09:43:33;;;;;;;5.78;3.98;;;;;;;15.45;47.63;101999.34;1580620;89;20947;-77
2022/04/28 09:46:01;;;;;;;4.58;3.30;;;;;;;15.41;47.69;102007.66;1559162;90;21487;-77
2022/04/28 09:48:31;;;;;;;4.08;3.47;;;;;;;15.41;47.67;101998.53;1582278;89;21470;-77
2022/04/28 09:51:04;;;;;;;6.20;3.55;;;;;;;15.36;47.57;101999.03;1583181;89;22031;-77
2022/04/28 09:53:33;;;;;;;6.65;3.25;;;;;;;15.40;47.65;102004.62;1563718;89;21604;-78
2022/04/28 09:56:02;;;;;;;7.37;3.90;;;;;;;15.36;47.42;102002.95;1567775;89;20978;-77
2022/04/28 09:58:29;;;;;;;4.35;3.40;;;;;;;15.37;47.54;101999.45;1581490;89;21773;-78
2022/04/28 10:01:01;;;;;;;4.72;3.72;;;;;;;15.43;47.45;102001.11;1578960;89;21522;-77
2022/04/28 10:03:30;;;;;;;7.55;4.03;;;;;;;15.47;47.47;101993.67;1563116;89;21038;-77
2022/04/28 10:06:00;;;;;;;3.35;3.05;;;;;;;15.48;47.27;101992.79;1584114;88;20986;-77
2022/04/28 10:08:29;;;;;;;4.72;3.47;;;;;;;15.39;47.26;101988.56;1581701;89;21513;-77
2022/04/28 10:10:56;;;;;;;5.80;3.70;;;;;;;15.36;47.24;101990.35;1563212;90;21003;-77
2022/04/28 10:13:23;;;;;;;5.15;3.70;;;;;;;15.39;47.31;101993.78;1578448;89;21160;-77
2022/04/28 10:15:58;;;;;;;4.50;3.20;;;;;;;15.41;47.16;101993.76;1579706;89;21590;-78
2022/04/28 10:18:33;;;;;;;7.08;3.62;;;;;;;15.35;46.99;101994.70;1576869;89;21361;-77
2022/04/28 10:21:03;;;;;;;4.60;3.60;;;;;;;15.33;47.04;102001.68;1547348;90;28543;-77
2022/04/28 10:35:04;;;;;;;6.00;3.62;;;;;;;15.68;46.63;102001.62;1617737;87;20452;-77
2022/04/28 10:37:44;;;;;;;7.28;3.30;;;;;;;15.64;46.86;102005.16;1622587;87;21396;-77
2022/04/28 10:40:16;;;;;;;7.62;3.20;;;;;;;15.59;46.72;102001.80;1625045;87;21060;-77
2022/04/28 10:42:54;;;;;;;4.55;3.05;;;;;;;15.62;46.85;102006.94;1609942;87;21049;-77
2022/04/28 10:45:24;;;;;;;3.12;2.83;;;;;;;15.75;46.89;101993.69;1623297;87;21323;-77
2022/04/28 10:48:08;;;;;;;4.78;3.12;;;;;;;15.89;46.79;101995.64;1616656;87;21553;-77
2022/04/28 10:50:34;;;;;;;6.17;3.20;;;;;;;16.01;46.63;102005.02;1599669;86;21146;-77
2022/04/28 10:53:05;;;;;;;4.35;3.30;;;;;;;16.07;46.58;102007.98;1617632;86;22213;-77
2022/04/28 10:55:42;;;;;;;3.33;2.65;;;;;;;16.09;46.47;102004.45;1628018;86;21447;-77
2022/04/28 10:58:27;;;;;;;6.45;3.05;;;;;;;16.09;46.50;102004.45;1625877;86;21538;-78
2022/04/28 11:01:01;;;;;;;5.08;3.15;;;;;;;16.20;46.47;102001.64;1617367;87;20956;-78
2022/04/28 11:03:57;;;;;;;6.33;2.70;;;;;;;16.32;46.44;101998.81;1604303;87;21074;-78
2022/04/28 11:06:33;;;;;;;10.48;2.85;;;;;;;16.33;46.08;102000.53;1606316;87;20959;-77
2022/04/28 11:09:04;;;;;;;5.22;2.35;;;;;;;16.31;46.01;101999.70;1615606;87;21355;-76
2022/04/28 11:11:46;;;;;;;3.42;2.70;;;;;;;16.27;45.99;101994.12;1610497;86;20944;-76
2022/04/28 11:14:14;;;;;;;2.62;2.00;;;;;;;16.32;45.92;101996.65;1606832;87;20964;-76
2022/04/28 11:16:43;;;;;;;2.98;1.75;;;;;;;16.33;45.81;101997.06;1618040;87;20971;-77
2022/04/28 11:19:11;;;;;;;3.37;2.22;;;;;;;16.33;45.55;101995.31;1613348;87;21027;-76
2022/04/28 11:21:39;;;;;;;2.00;1.80;;;;;;;16.27;45.27;102011.53;1616443;87;20940;-76
2022/04/28 11:24:07;;;;;;;2.85;1.77;;;;;;;16.06;44.70;102006.25;1616634;87;20977;-76
2022/04/28 11:26:37;;;;;;;4.92;2.08;;;;;;;15.88;44.95;102007.41;1610900;86;20924;-76
2022/04/28 11:29:09;;;;;;;6.50;2.30;;;;;;;15.81;45.10;102005.78;1599682;88;21000;-77
2022/04/28 11:31:36;;;;;;;4.58;1.82;;;;;;;15.78;45.18;102006.69;1610604;88;20976;-77
2022/04/28 11:34:07;;;;;;;2.83;2.42;;;;;;;15.81;45.09;102009.25;1602723;88;21025;-77
2022/04/28 11:36:33;;;;;;;3.30;2.60;;;;;;;15.74;44.97;102007.62;1610315;88;20984;-77
2022/04/28 11:39:02;;;;;;;7.20;2.67;;;;;;;15.77;45.01;102011.48;1603470;88;22091;-77
2022/04/28 11:41:34;;;;;;;4.30;2.60;;;;;;;15.89;45.15;102009.13;1602884;88;21034;-77
2022/04/28 11:44:06;;;;;;;4.72;2.42;;;;;;;15.95;44.75;102010.34;1608119;86;20905;-77
2022/04/28 11:46:43;;;;;;;5.80;2.75;;;;;;;15.94;44.72;102005.14;1608774;88;20991;-77
2022/04/28 11:49:09;;;;;;;4.67;2.10;;;;;;;15.90;44.67;102004.33;1603878;88;20996;-77
2022/04/28 11:51:36;;;;;;;4.30;1.70;;;;;;;15.83;44.63;102003.56;1601916;86;20941;-77
2022/04/28 11:54:23;;;;;;;2.25;1.80;;;;;;;15.79;44.50;102007.11;1601183;88;37795;-77
2022/04/28 11:56:50;;;;;;;4.90;2.40;;;;;;;15.75;44.38;102010.64;1609032;88;20940;-77
2022/04/28 11:59:24;;;;;;;3.70;2.17;;;;;;;15.64;44.26;102003.86;1613074;86;21065;-77
2022/04/28 12:01:50;;;;;;;5.03;2.47;;;;;;;15.59;44.30;102001.80;1602644;88;20932;-77
2022/04/28 12:04:16;;;;;;;3.60;2.25;;;;;;;15.57;44.26;102000.52;1618680;86;21162;-76